Planet Ace — 3EYF9 — position and weather

sailwx.info

Track history (hours):
 
Tides and Currents Weather Stations Pressure Air Temp Water Temp Dewpoint Dewpoint Depression Visibility Wind Speed Wind Dir Waves Ship Positions

Planet Ace

Last reported at 2014-Nov-27 19:25 UTC. Time now 2014-Nov-27 23:11 UTC.
Position N 36°48' E 013°03'.

Length 188 m; beam 28.2 m.

Type: Cargo ship. MMSI: 352168000.

Date/timePositionNaut miles runAvg speedWind from/ knotsBaromVisibWave heightAir tempDewpointWater temp
2014-Nov-27 19:25N 36°48' E 013°03'1416.0
2014-Nov-27 18:33N 36°43' E 013°19'2315.8
2014-Nov-27 17:07N 36°35' E 013°45'1015.8
2014-Nov-27 16:30N 36°32' E 013°57'1515.9
2014-Nov-27 15:33N 36°26' E 014°14'1915.9
2014-Nov-27 14:23N 36°20' E 014°36'44815.0
2014-Nov-26 08:33N 36°40' E 023°52'1615.8
2014-Nov-26 07:33N 36°53' E 024°03'1817.3
2014-Nov-26 06:31N 37°10' E 024°11'1717.5
2014-Nov-26 05:33N 37°26' E 024°18'1615.8
2014-Nov-26 04:33N 37°38' E 024°30'13415.9
2014-Nov-25 20:09N 39°40' E 025°39'1016.0
2014-Nov-25 19:30N 39°50' E 025°45'13913.6
2014-Nov-25 09:18N 40°38' E 028°35'1114.1
2014-Nov-25 08:33N 40°30' E 028°44'1615.0
2014-Nov-25 07:31N 40°25' E 029°03'1 1.5
2014-Nov-25 06:33N 40°25' E 029°05'0 0.0
2014-Nov-25 05:33N 40°25' E 029°05'0 0.0
2014-Nov-25 04:33N 40°25' E 029°05'0 0.0
2014-Nov-25 02:21N 40°25' E 029°05'0 0.0
2014-Nov-25 00:33N 40°25' E 029°05'0 0.0
2014-Nov-24 22:33N 40°25' E 029°05'0 0.0
2014-Nov-24 21:33N 40°25' E 029°05'0 0.0
2014-Nov-24 19:27N 40°25' E 029°05'0 0.2
2014-Nov-24 18:33N 40°25' E 029°05'19 9.4
2014-Nov-24 16:30N 40°36' E 028°44'1515.9
2014-Nov-24 15:33N 40°43' E 029°02'1515.2
2014-Nov-24 14:33N 40°44' E 029°22'9 9.3
2014-Nov-24 13:32N 40°45' E 029°34'5 0.3
2014-Nov-23 21:20N 40°44' E 029°41'910.4
2014-Nov-23 20:30N 40°45' E 029°29'1010.2
2014-Nov-23 19:33N 40°43' E 029°17'1514.9
2014-Nov-23 18:33N 40°43' E 028°57'1414.3
2014-Nov-23 17:33N 40°43' E 028°39'13712.3
2014-Nov-23 06:24N 39°51' E 025°52'1514.5
2014-Nov-23 05:20N 39°37' E 025°43'8914.8
2014-Nov-22 23:18N 38°18' E 024°52'5314.2
2014-Nov-22 19:34N 37°37' E 024°09'1514.8
2014-Nov-22 18:33N 37°36' E 023°50'1313.5
2014-Nov-22 17:34N 37°46' E 023°39'1211.7
2014-Nov-22 16:33N 37°58' E 023°36'0 0.0
2014-Nov-22 15:33N 37°58' E 023°37'0 0.0
2014-Nov-22 14:33N 37°58' E 023°37'0 0.0
2014-Nov-22 13:33N 37°58' E 023°36'0 0.0
2014-Nov-22 12:33N 37°58' E 023°36'0 0.0
2014-Nov-22 11:33N 37°58' E 023°37'1 0.5
2014-Nov-22 10:33N 37°57' E 023°36'7 7.4
2014-Nov-22 09:33N 37°50' E 023°39'9 9.4
2014-Nov-22 08:33N 37°42' E 023°45'4615.2
2014-Nov-22 05:33N 36°57' E 023°39'  
2014-Nov-19 23:12N 42°50' E 009°56'1015.6
2014-Nov-19 22:33N 42°60' E 009°60'1615.7
2014-Nov-19 21:33N 43°15' E 010°06'1515.5
2014-Nov-19 20:34N 43°30' E 010°12'7 6.6
2014-Nov-19 19:29N 43°35' E 010°18'0 0.0
2014-Nov-19 18:32N 43°35' E 010°18'0 0.0
2014-Nov-19 17:32N 43°35' E 010°18'0 0.0
2014-Nov-19 16:32N 43°35' E 010°18'0 0.0
2014-Nov-19 15:31N 43°35' E 010°18'0 0.0
2014-Nov-19 14:31N 43°35' E 010°18'0 0.0
2014-Nov-19 13:31N 43°35' E 010°18'0 0.0
2014-Nov-19 12:28N 43°35' E 010°18'0 0.0
2014-Nov-19 11:31N 43°35' E 010°18'0 0.0
2014-Nov-19 10:31N 43°35' E 010°18'0 0.0
2014-Nov-19 09:31N 43°35' E 010°18'0 0.0
2014-Nov-19 08:31N 43°35' E 010°18'0 0.0
2014-Nov-19 07:31N 43°35' E 010°18'0 0.0
2014-Nov-19 06:31N 43°35' E 010°18'3 3.3
2014-Nov-19 05:33N 43°32' E 010°16'8 7.7
2014-Nov-19 04:34N 43°24' E 010°14'1110.8
2014-Nov-19 03:33N 43°14' E 010°17'2 1.6
2014-Nov-19 02:33N 43°14' E 010°15'3 3.5
2014-Nov-19 01:33N 43°17' E 010°12'3 3.0
2014-Nov-19 00:33N 43°19' E 010°09'3 3.1
2014-Nov-18 23:33N 43°20' E 010°05'3 3.0
2014-Nov-18 22:33N 43°21' E 010°01'5 4.8
2014-Nov-18 21:33N 43°26' E 010°04'5 5.0
2014-Nov-18 20:33N 43°29' E 010°09'2 1.5
2014-Nov-18 19:33N 43°28' E 010°12'1212.2
2014-Nov-18 18:34N 43°20' E 010°00'1615.7
2014-Nov-18 17:34N 43°14' E 009°40'1615.8
2014-Nov-18 16:34N 43°09' E 009°19'23515.5
2014-Nov-18 01:24N 41°50' E 004°19'1715.1
2014-Nov-18 00:17N 41°44' E 003°57'5615.0
2014-Nov-17 20:34N 41°26' E 002°47'1615.0
2014-Nov-17 19:30N 41°21' E 002°27'  
Track history (hours):
 
Tides and Currents Weather Stations Pressure Air Temp Water Temp Dewpoint Dewpoint Depression Visibility Wind Speed Wind Dir Waves Ship Positions

Planet Ace

Last reported at 2014-Nov-27 19:25 UTC. Time now 2014-Nov-27 23:11 UTC.
Position N 36°48' E 013°03'.

Length 188 m; beam 28.2 m.

Type: Cargo ship. MMSI: 352168000.

Date/timePositionNaut miles runAvg speedWind from/ knotsBaromVisibWave heightAir tempDewpointWater temp
2014-Nov-27 19:25N 36°48' E 013°03'1416.0
2014-Nov-27 18:33N 36°43' E 013°19'2315.8
2014-Nov-27 17:07N 36°35' E 013°45'1015.8
2014-Nov-27 16:30N 36°32' E 013°57'1515.9
2014-Nov-27 15:33N 36°26' E 014°14'1915.9
2014-Nov-27 14:23N 36°20' E 014°36'44815.0
2014-Nov-26 08:33N 36°40' E 023°52'1615.8
2014-Nov-26 07:33N 36°53' E 024°03'1817.3
2014-Nov-26 06:31N 37°10' E 024°11'1717.5
2014-Nov-26 05:33N 37°26' E 024°18'1615.8
2014-Nov-26 04:33N 37°38' E 024°30'13415.9
2014-Nov-25 20:09N 39°40' E 025°39'1016.0
2014-Nov-25 19:30N 39°50' E 025°45'13913.6
2014-Nov-25 09:18N 40°38' E 028°35'1114.1
2014-Nov-25 08:33N 40°30' E 028°44'1615.0
2014-Nov-25 07:31N 40°25' E 029°03'1 1.5
2014-Nov-25 06:33N 40°25' E 029°05'0 0.0
2014-Nov-25 05:33N 40°25' E 029°05'0 0.0
2014-Nov-25 04:33N 40°25' E 029°05'0 0.0
2014-Nov-25 02:21N 40°25' E 029°05'0 0.0
2014-Nov-25 00:33N 40°25' E 029°05'0 0.0
2014-Nov-24 22:33N 40°25' E 029°05'0 0.0
2014-Nov-24 21:33N 40°25' E 029°05'0 0.0
2014-Nov-24 19:27N 40°25' E 029°05'0 0.2
2014-Nov-24 18:33N 40°25' E 029°05'19 9.4
2014-Nov-24 16:30N 40°36' E 028°44'1515.9
2014-Nov-24 15:33N 40°43' E 029°02'1515.2
2014-Nov-24 14:33N 40°44' E 029°22'9 9.3
2014-Nov-24 13:32N 40°45' E 029°34'5 0.3
2014-Nov-23 21:20N 40°44' E 029°41'910.4
2014-Nov-23 20:30N 40°45' E 029°29'1010.2
2014-Nov-23 19:33N 40°43' E 029°17'1514.9
2014-Nov-23 18:33N 40°43' E 028°57'1414.3
2014-Nov-23 17:33N 40°43' E 028°39'13712.3
2014-Nov-23 06:24N 39°51' E 025°52'1514.5
2014-Nov-23 05:20N 39°37' E 025°43'8914.8
2014-Nov-22 23:18N 38°18' E 024°52'5314.2
2014-Nov-22 19:34N 37°37' E 024°09'1514.8
2014-Nov-22 18:33N 37°36' E 023°50'1313.5
2014-Nov-22 17:34N 37°46' E 023°39'1211.7
2014-Nov-22 16:33N 37°58' E 023°36'0 0.0
2014-Nov-22 15:33N 37°58' E 023°37'0 0.0
2014-Nov-22 14:33N 37°58' E 023°37'0 0.0
2014-Nov-22 13:33N 37°58' E 023°36'0 0.0
2014-Nov-22 12:33N 37°58' E 023°36'0 0.0
2014-Nov-22 11:33N 37°58' E 023°37'1 0.5
2014-Nov-22 10:33N 37°57' E 023°36'7 7.4
2014-Nov-22 09:33N 37°50' E 023°39'9 9.4
2014-Nov-22 08:33N 37°42' E 023°45'4615.2
2014-Nov-22 05:33N 36°57' E 023°39'  
2014-Nov-19 23:12N 42°50' E 009°56'1015.6
2014-Nov-19 22:33N 42°60' E 009°60'1615.7
2014-Nov-19 21:33N 43°15' E 010°06'1515.5
2014-Nov-19 20:34N 43°30' E 010°12'7 6.6
2014-Nov-19 19:29N 43°35' E 010°18'0 0.0
2014-Nov-19 18:32N 43°35' E 010°18'0 0.0
2014-Nov-19 17:32N 43°35' E 010°18'0 0.0
2014-Nov-19 16:32N 43°35' E 010°18'0 0.0
2014-Nov-19 15:31N 43°35' E 010°18'0 0.0
2014-Nov-19 14:31N 43°35' E 010°18'0 0.0
2014-Nov-19 13:31N 43°35' E 010°18'0 0.0
2014-Nov-19 12:28N 43°35' E 010°18'0 0.0
2014-Nov-19 11:31N 43°35' E 010°18'0 0.0
2014-Nov-19 10:31N 43°35' E 010°18'0 0.0
2014-Nov-19 09:31N 43°35' E 010°18'0 0.0
2014-Nov-19 08:31N 43°35' E 010°18'0 0.0
2014-Nov-19 07:31N 43°35' E 010°18'0 0.0
2014-Nov-19 06:31N 43°35' E 010°18'3 3.3
2014-Nov-19 05:33N 43°32' E 010°16'8 7.7
2014-Nov-19 04:34N 43°24' E 010°14'1110.8
2014-Nov-19 03:33N 43°14' E 010°17'2 1.6
2014-Nov-19 02:33N 43°14' E 010°15'3 3.5
2014-Nov-19 01:33N 43°17' E 010°12'3 3.0
2014-Nov-19 00:33N 43°19' E 010°09'3 3.1
2014-Nov-18 23:33N 43°20' E 010°05'3 3.0
2014-Nov-18 22:33N 43°21' E 010°01'5 4.8
2014-Nov-18 21:33N 43°26' E 010°04'5 5.0
2014-Nov-18 20:33N 43°29' E 010°09'2 1.5
2014-Nov-18 19:33N 43°28' E 010°12'1212.2
2014-Nov-18 18:34N 43°20' E 010°00'1615.7
2014-Nov-18 17:34N 43°14' E 009°40'1615.8
2014-Nov-18 16:34N 43°09' E 009°19'23515.5
2014-Nov-18 01:24N 41°50' E 004°19'1715.1
2014-Nov-18 00:17N 41°44' E 003°57'5615.0
2014-Nov-17 20:34N 41°26' E 002°47'1615.0
2014-Nov-17 19:30N 41°21' E 002°27'  

Dump ship's entire track history